createdAt,value
2019-02-18T00:02:19.993Z,101287.09
2019-02-18T00:04:46.123Z,101279.44
2019-02-18T00:07:14.789Z,101284.14
2019-02-18T00:09:40.653Z,101279.36
2019-02-18T00:12:06.942Z,101275.98
2019-02-18T00:14:33.054Z,101282.75
2019-02-18T00:16:59.405Z,101286.81
2019-02-18T00:19:25.585Z,101289.20
2019-02-18T00:21:52.883Z,101278.75
2019-02-18T00:24:22.764Z,101283.20
2019-02-18T00:26:48.873Z,101285.35
2019-02-18T00:29:15.990Z,101285.00
2019-02-18T00:31:42.052Z,101283.67
2019-02-18T00:34:08.297Z,101290.06
2019-02-18T00:36:34.376Z,101286.17
2019-02-18T00:39:10.720Z,101284.27
2019-02-18T00:41:36.797Z,101274.30
2019-02-18T00:44:04.401Z,101278.17
2019-02-18T00:46:30.498Z,101280.25
2019-02-18T00:48:56.587Z,101277.61
2019-02-18T00:51:22.691Z,101267.59
2019-02-18T00:53:48.788Z,101271.03
2019-02-18T00:56:14.981Z,101271.20
2019-02-18T00:58:41.061Z,101268.00
2019-02-18T01:01:07.252Z,101273.97
2019-02-18T01:03:33.441Z,101269.70
2019-02-18T01:05:59.621Z,101267.42
2019-02-18T01:08:25.792Z,101273.67
2019-02-18T01:10:52.090Z,101265.95
2019-02-18T01:13:18.271Z,101268.88
2019-02-18T01:15:44.428Z,101275.11
2019-02-18T01:18:10.523Z,101272.71
2019-02-18T01:20:37.370Z,101275.95
2019-02-18T01:23:05.998Z,101278.80
2019-02-18T01:25:32.073Z,101277.26
2019-02-18T01:27:58.526Z,101269.43
2019-02-18T01:30:24.739Z,101271.30
2019-02-18T01:32:51.037Z,101269.17
2019-02-18T01:35:17.117Z,101269.11
2019-02-18T01:37:46.163Z,101269.23
2019-02-18T01:40:12.783Z,101259.79
2019-02-18T01:42:39.136Z,101262.48
2019-02-18T01:45:08.370Z,101256.28
2019-02-18T01:47:34.445Z,101256.07
2019-02-18T01:50:05.310Z,101253.38
2019-02-18T01:52:31.414Z,101251.30
2019-02-18T01:54:57.493Z,101252.25
2019-02-18T01:57:23.565Z,101252.59
2019-02-18T01:59:49.889Z,101253.23
2019-02-18T02:02:16.041Z,101243.69
2019-02-18T02:04:42.344Z,101236.78
2019-02-18T02:07:08.605Z,101243.30
2019-02-18T02:09:34.902Z,101241.57
2019-02-18T02:12:04.806Z,101239.98
2019-02-18T02:14:30.914Z,101239.22
2019-02-18T02:16:57.073Z,101241.58
2019-02-18T02:19:23.382Z,101241.60
2019-02-18T02:21:49.488Z,101237.58
2019-02-18T02:24:15.651Z,101238.95
2019-02-18T02:26:41.761Z,101238.25
2019-02-18T02:29:07.936Z,101244.91
2019-02-18T02:31:34.146Z,101238.95
2019-02-18T02:34:00.226Z,101232.00
2019-02-18T02:36:34.395Z,101238.73
2019-02-18T02:39:00.571Z,101231.80
2019-02-18T02:41:31.254Z,101227.84
2019-02-18T02:43:57.320Z,101232.64
2019-02-18T02:46:23.510Z,101225.80
2019-02-18T02:48:50.704Z,101226.47
2019-02-18T02:51:17.063Z,101229.55
2019-02-18T02:53:43.267Z,101220.45
2019-02-18T02:56:09.323Z,101220.73
2019-02-18T02:58:35.435Z,101219.55
2019-02-18T03:01:04.540Z,101226.78
2019-02-18T03:03:34.361Z,101227.00
2019-02-18T03:06:06.130Z,101220.34
2019-02-18T03:08:32.330Z,101223.83
2019-02-18T03:10:58.391Z,101220.84
2019-02-18T03:13:25.581Z,101219.28
2019-02-18T03:15:51.654Z,101220.05
2019-02-18T03:18:17.756Z,101220.25
2019-02-18T03:20:44.940Z,101217.08
2019-02-18T03:23:11.317Z,101214.92
2019-02-18T03:25:38.680Z,101219.45
2019-02-18T03:28:17.723Z,101219.56
2019-02-18T03:30:50.627Z,101223.40
2019-02-18T03:33:23.385Z,101221.49
2019-02-18T03:35:49.468Z,101221.84
2019-02-18T03:38:15.564Z,101220.65
2019-02-18T03:40:41.786Z,101223.41
2019-02-18T03:43:07.967Z,101220.34
2019-02-18T03:45:34.206Z,101222.84
2019-02-18T03:48:04.906Z,101226.41
2019-02-18T03:50:30.964Z,101230.84
2019-02-18T03:52:57.271Z,101227.37
2019-02-18T03:55:23.467Z,101226.09
2019-02-18T03:57:49.881Z,101225.30
2019-02-18T04:00:16.085Z,101227.17
2019-02-18T04:02:42.248Z,101223.61
2019-02-18T04:05:10.859Z,101223.91
2019-02-18T04:07:36.954Z,101219.47
2019-02-18T04:10:07.251Z,101227.07
2019-02-18T04:12:33.315Z,101221.06
2019-02-18T04:14:59.515Z,101226.48
2019-02-18T04:17:26.682Z,101233.73
2019-02-18T04:19:52.931Z,101226.98
2019-02-18T04:22:19.041Z,101227.17
2019-02-18T04:24:45.141Z,101225.30
2019-02-18T04:27:11.237Z,101233.11
2019-02-18T04:29:37.323Z,101233.92
2019-02-18T04:32:05.048Z,101230.64
2019-02-18T04:34:31.146Z,101235.12
2019-02-18T04:36:57.266Z,101233.52
2019-02-18T04:39:23.339Z,101229.55
2019-02-18T04:41:49.448Z,101233.13
2019-02-18T04:44:15.511Z,101238.46
2019-02-18T04:46:41.746Z,101229.16
2019-02-18T04:49:07.830Z,101227.86
2019-02-18T04:51:33.927Z,101224.41
2019-02-18T04:53:59.995Z,101223.43
2019-02-18T04:56:26.172Z,101221.45
2019-02-18T04:58:52.361Z,101214.59
2019-02-18T05:01:18.460Z,101222.22
2019-02-18T05:03:44.578Z,101216.79
2019-02-18T05:06:10.661Z,101216.31
2019-02-18T05:08:36.755Z,101213.92
2019-02-18T05:11:02.826Z,101210.84
2019-02-18T05:13:29.059Z,101208.59
2019-02-18T05:15:55.138Z,101209.27
2019-02-18T05:18:21.369Z,101209.17
2019-02-18T05:20:47.525Z,101206.21
2019-02-18T05:23:13.735Z,101202.16
2019-02-18T05:25:39.934Z,101197.88
2019-02-18T05:28:06.009Z,101196.30
2019-02-18T05:30:32.099Z,101204.02
2019-02-18T05:32:58.300Z,101209.53
2019-02-18T05:35:24.411Z,101203.72
2019-02-18T05:37:50.481Z,101197.97
2019-02-18T05:40:16.598Z,101202.63
2019-02-18T05:42:42.762Z,101202.01
2019-02-18T05:45:08.962Z,101193.97
2019-02-18T05:47:34.998Z,101194.82
2019-02-18T05:50:01.160Z,101190.02
2019-02-18T05:52:27.247Z,101190.93
2019-02-18T05:54:53.351Z,101196.28
2019-02-18T05:57:19.521Z,101194.66
2019-02-18T05:59:45.729Z,101188.23
2019-02-18T06:02:11.904Z,101187.73
2019-02-18T06:04:37.984Z,101183.97
2019-02-18T06:07:04.188Z,101184.05
2019-02-18T06:09:31.396Z,101187.66
2019-02-18T06:11:57.479Z,101184.54
2019-02-18T06:14:23.551Z,101187.91
2019-02-18T06:16:49.662Z,101188.63
2019-02-18T06:19:15.742Z,101187.22
2019-02-18T06:21:41.951Z,101189.63
2019-02-18T06:24:08.023Z,101193.47
2019-02-18T06:26:34.124Z,101191.14
2019-02-18T06:29:00.228Z,101199.80
2019-02-18T06:31:26.358Z,101194.67
2019-02-18T06:33:52.449Z,101195.87
2019-02-18T06:36:18.521Z,101196.16
2019-02-18T06:38:44.628Z,101193.53
2019-02-18T06:41:10.815Z,101199.33
2019-02-18T06:43:37.016Z,101200.98
2019-02-18T06:46:17.078Z,101204.68
2019-02-18T06:48:50.876Z,101204.95
2019-02-18T06:51:17.236Z,101204.76
2019-02-18T06:53:43.299Z,101208.13
2019-02-18T06:56:09.483Z,101206.65
2019-02-18T06:58:40.548Z,101205.58
2019-02-18T07:01:08.539Z,101211.59
2019-02-18T07:03:36.525Z,101210.19
2019-02-18T07:06:10.760Z,101207.58
2019-02-18T07:08:56.124Z,101210.54
2019-02-18T07:11:24.353Z,101207.99
2019-02-18T07:13:50.464Z,101208.98
2019-02-18T07:16:16.562Z,101214.62
2019-02-18T07:18:42.705Z,101219.77
2019-02-18T07:21:08.793Z,101219.27
2019-02-18T07:23:34.979Z,101207.30
2019-02-18T07:26:01.181Z,101205.41
2019-02-18T07:28:27.270Z,101205.59
2019-02-18T07:30:53.367Z,101202.23
2019-02-18T07:33:19.476Z,101197.47
2019-02-18T07:35:45.668Z,101203.63
2019-02-18T07:38:11.844Z,101195.47
2019-02-18T07:40:37.950Z,101199.30
2019-02-18T07:43:04.138Z,101197.78
2019-02-18T07:45:30.327Z,101201.75
2019-02-18T07:47:56.452Z,101193.39
2019-02-18T07:50:22.677Z,101193.58
2019-02-18T07:52:48.744Z,101201.47
2019-02-18T07:55:14.882Z,101196.84
2019-02-18T07:57:40.968Z,101191.62
2019-02-18T08:00:10.572Z,101192.00
2019-02-18T08:02:36.670Z,101196.09
2019-02-18T08:05:04.356Z,101198.11
2019-02-18T08:07:30.450Z,101192.21
2019-02-18T08:09:56.523Z,101200.56
2019-02-18T08:12:22.631Z,101190.75
2019-02-18T08:14:48.817Z,101189.77
2019-02-18T08:17:14.940Z,101187.24
2019-02-18T08:19:41.031Z,101182.67
2019-02-18T08:22:07.094Z,101185.38
2019-02-18T08:24:33.221Z,101186.84
2019-02-18T08:26:59.310Z,101182.82
2019-02-18T08:29:25.421Z,101173.00
2019-02-18T08:31:51.510Z,101174.61
2019-02-18T08:34:17.627Z,101178.34
2019-02-18T08:36:44.597Z,101171.70
2019-02-18T08:39:10.785Z,101179.96
2019-02-18T08:41:36.853Z,101165.58
2019-02-18T08:44:03.065Z,101162.56
2019-02-18T08:46:29.258Z,101161.70
2019-02-18T08:48:55.394Z,101162.36
2019-02-18T08:51:21.460Z,101159.25
2019-02-18T08:53:48.012Z,101159.37
2019-02-18T08:56:14.136Z,101150.47
2019-02-18T08:58:40.232Z,101159.95
2019-02-18T09:01:06.341Z,101160.80
2019-02-18T09:03:32.451Z,101158.25
2019-02-18T09:05:58.548Z,101161.26
2019-02-18T09:08:24.615Z,101167.77
2019-02-18T09:10:50.742Z,101163.78
2019-02-18T09:13:16.914Z,101157.72
2019-02-18T09:15:43.026Z,101155.97
2019-02-18T09:18:09.116Z,101162.63
2019-02-18T09:22:31.851Z,101152.80
2019-02-18T09:25:05.915Z,101153.14
2019-02-18T09:27:32.035Z,101147.20
2019-02-18T09:29:58.217Z,101146.41
2019-02-18T09:32:24.448Z,101150.19
2019-02-18T09:34:53.228Z,101143.92
2019-02-18T09:37:18.823Z,101131.75
2019-02-18T09:39:45.031Z,101135.42
2019-02-18T09:42:11.250Z,101131.17
2019-02-18T09:44:37.343Z,101127.12
2019-02-18T09:47:03.547Z,101125.45
2019-02-18T09:49:29.754Z,101125.58
2019-02-18T09:51:55.878Z,101128.75
2019-02-18T09:54:21.963Z,101120.98
2019-02-18T09:56:48.201Z,101122.66
2019-02-18T09:59:14.294Z,101114.95
2019-02-18T10:01:43.062Z,101115.80
2019-02-18T10:04:08.790Z,101115.17
2019-02-18T10:06:34.933Z,101110.43
2019-02-18T10:09:01.135Z,101109.55
2019-02-18T10:11:27.342Z,101104.46
2019-02-18T10:13:53.421Z,101101.14
2019-02-18T10:16:19.511Z,101104.69
2019-02-18T10:18:45.803Z,101100.42
2019-02-18T10:21:12.036Z,101099.81
2019-02-18T10:23:38.166Z,101097.98
2019-02-18T10:26:04.249Z,101093.30
2019-02-18T10:28:30.520Z,101092.69
2019-02-18T10:30:56.697Z,101085.13
2019-02-18T10:33:22.836Z,101080.34
2019-02-18T10:35:48.933Z,101085.56
2019-02-18T10:38:15.032Z,101080.25
2019-02-18T10:40:41.222Z,101083.31
2019-02-18T10:43:07.314Z,101079.93
2019-02-18T10:45:33.445Z,101074.38
2019-02-18T10:47:59.538Z,101076.28
2019-02-18T10:50:25.657Z,101074.42
2019-02-18T10:52:51.767Z,101068.30
2019-02-18T10:55:18.069Z,101065.44
2019-02-18T10:57:44.194Z,101061.25
2019-02-18T11:00:14.937Z,101060.52
2019-02-18T11:02:41.035Z,101058.91
2019-02-18T11:05:07.783Z,101062.59
2019-02-18T11:07:33.974Z,101064.72
2019-02-18T11:10:00.339Z,101062.97
2019-02-18T11:12:26.388Z,101058.77
2019-02-18T11:14:52.473Z,101047.98
2019-02-18T11:17:18.554Z,101046.19
2019-02-18T11:19:44.627Z,101038.41
2019-02-18T11:22:10.751Z,101040.16
2019-02-18T11:24:37.164Z,101038.66
2019-02-18T11:27:03.376Z,101024.46
2019-02-18T11:29:29.574Z,101027.50
2019-02-18T11:31:55.768Z,101022.23
2019-02-18T11:34:21.893Z,101017.84
2019-02-18T11:36:47.986Z,101013.08
2019-02-18T11:39:15.168Z,101018.89
2019-02-18T11:41:41.492Z,101007.02
2019-02-18T11:44:07.661Z,101003.52
2019-02-18T11:46:34.019Z,100999.11
2019-02-18T11:49:00.213Z,100997.36
2019-02-18T11:51:26.541Z,100997.37
2019-02-18T11:53:52.652Z,100990.33
2019-02-18T11:56:18.745Z,100989.86
2019-02-18T11:58:44.846Z,100990.22
2019-02-18T12:01:10.936Z,100985.45
2019-02-18T12:03:37.037Z,100974.94
2019-02-18T12:06:03.312Z,100971.80
2019-02-18T12:08:29.582Z,100974.34
2019-02-18T12:10:55.889Z,100971.16
2019-02-18T12:13:21.998Z,100974.41
2019-02-18T12:15:48.113Z,100961.75
2019-02-18T12:18:14.309Z,100956.35
2019-02-18T12:20:40.817Z,100949.27
2019-02-18T12:23:07.853Z,100946.97
2019-02-18T12:25:33.969Z,100941.53
2019-02-18T12:28:00.058Z,100935.92
2019-02-18T12:30:26.265Z,100929.38
2019-02-18T12:32:52.367Z,100938.06
2019-02-18T12:35:18.601Z,100931.92
2019-02-18T12:37:54.664Z,100928.56
2019-02-18T12:40:12.936Z,100930.70
2019-02-18T12:42:39.146Z,100923.42
2019-02-18T12:45:12.253Z,100924.34
2019-02-18T12:47:38.579Z,100918.36
2019-02-18T12:50:06.515Z,100913.08
2019-02-18T12:52:32.817Z,100906.81
2019-02-18T12:55:00.377Z,100908.70
2019-02-18T12:57:27.041Z,100900.39
2019-02-18T12:59:53.740Z,100896.61
2019-02-18T13:02:20.027Z,100899.30
2019-02-18T13:04:46.174Z,100895.91
2019-02-18T13:07:12.343Z,100891.44
2019-02-18T13:09:38.441Z,100885.98
2019-02-18T13:12:04.628Z,100888.83
2019-02-18T13:14:30.834Z,100881.76
2019-02-18T13:16:57.026Z,100878.03
2019-02-18T13:19:23.145Z,100879.00
2019-02-18T13:21:49.374Z,100878.02
2019-02-18T13:24:15.891Z,100873.75
2019-02-18T13:26:42.248Z,100864.97
2019-02-18T13:29:08.596Z,100856.47
2019-02-18T13:31:34.918Z,100853.19
2019-02-18T13:34:01.142Z,100849.81
2019-02-18T13:36:27.442Z,100845.65
2019-02-18T13:38:53.749Z,100849.91
2019-02-18T13:41:19.963Z,100848.95
2019-02-18T13:43:46.187Z,100836.64
2019-02-18T13:46:12.635Z,100844.99
2019-02-18T13:48:38.739Z,100841.73
2019-02-18T13:51:04.985Z,100835.79
2019-02-18T13:53:31.075Z,100827.76
2019-02-18T13:55:57.330Z,100833.98
2019-02-18T13:58:23.529Z,100826.20
2019-02-18T14:00:49.748Z,100821.44
2019-02-18T14:03:15.981Z,100829.03
2019-02-18T14:05:42.303Z,100820.52
2019-02-18T14:08:08.498Z,100820.20
2019-02-18T14:10:34.699Z,100815.31
2019-02-18T14:13:00.839Z,100810.78
2019-02-18T14:15:27.170Z,100808.33
2019-02-18T14:17:53.449Z,100807.70
2019-02-18T14:20:19.865Z,100810.88
2019-02-18T14:22:47.391Z,100809.14
2019-02-18T14:25:13.869Z,100810.93
2019-02-18T14:27:40.175Z,100801.27
2019-02-18T14:30:11.998Z,100796.30
2019-02-18T14:32:38.329Z,100799.30
2019-02-18T14:35:05.433Z,100795.84
2019-02-18T14:37:31.772Z,100789.87
2019-02-18T14:39:57.955Z,100791.70
2019-02-18T14:42:24.762Z,100792.11
2019-02-18T14:44:51.906Z,100789.33
2019-02-18T14:47:18.342Z,100787.31
2019-02-18T14:49:44.678Z,100785.91
2019-02-18T14:52:11.118Z,100784.12
2019-02-18T14:54:37.341Z,100781.30
2019-02-18T14:57:03.592Z,100780.88
2019-02-18T14:59:29.780Z,100779.11
2019-02-18T15:01:57.663Z,100774.73
2019-02-18T15:04:23.874Z,100778.75
2019-02-18T15:06:50.074Z,100780.84
2019-02-18T15:09:16.460Z,100772.59
2019-02-18T15:11:42.630Z,100779.84
2019-02-18T15:14:09.001Z,100766.70
2019-02-18T15:16:35.084Z,100768.38
2019-02-18T15:19:01.345Z,100761.88
2019-02-18T15:21:27.751Z,100755.23
2019-02-18T15:23:53.979Z,100748.58
2019-02-18T15:26:20.316Z,100746.13
2019-02-18T15:28:46.383Z,100750.58
2019-02-18T15:31:12.601Z,100742.55
2019-02-18T15:33:38.946Z,100730.66
2019-02-18T15:36:05.233Z,100735.48
2019-02-18T15:38:31.575Z,100727.59
2019-02-18T15:40:58.368Z,100729.88
2019-02-18T15:43:24.604Z,100725.95
2019-02-18T15:45:50.816Z,100719.69
2019-02-18T15:48:17.037Z,100714.36
2019-02-18T15:50:43.390Z,100713.08
2019-02-18T15:53:09.571Z,100708.56
2019-02-18T15:55:37.502Z,100704.02
2019-02-18T15:58:03.705Z,100698.66
2019-02-18T16:00:30.133Z,100693.59
2019-02-18T16:02:56.337Z,100683.20
2019-02-18T16:05:22.656Z,100682.30
2019-02-18T16:07:48.919Z,100667.55
2019-02-18T16:10:15.182Z,100669.20
2019-02-18T16:12:41.383Z,100666.56
2019-02-18T16:15:09.692Z,100666.17
2019-02-18T16:17:35.811Z,100666.81
2019-02-18T16:20:05.403Z,100664.34
2019-02-18T16:22:31.518Z,100660.41
2019-02-18T16:24:57.679Z,100671.11
2019-02-18T16:27:23.783Z,100665.47
2019-02-18T16:29:50.106Z,100669.03
2019-02-18T16:32:21.171Z,100666.42
2019-02-18T16:34:47.319Z,100669.47
2019-02-18T16:37:14.936Z,100673.83
2019-02-18T16:39:41.135Z,100672.50
2019-02-18T16:42:14.614Z,100672.44
2019-02-18T16:44:40.900Z,100675.64
2019-02-18T16:47:07.246Z,100682.56
2019-02-18T16:49:33.706Z,100679.77
2019-02-18T16:51:59.960Z,100677.66
2019-02-18T16:54:32.362Z,100680.00
2019-02-18T16:57:05.216Z,100681.83
2019-02-18T16:59:31.439Z,100676.19
2019-02-18T17:01:57.815Z,100682.86
2019-02-18T17:04:24.038Z,100682.73
2019-02-18T17:06:50.161Z,100686.79
2019-02-18T17:09:16.876Z,100692.81
2019-02-18T17:11:43.035Z,100695.53
2019-02-18T17:14:09.299Z,100699.86
2019-02-18T17:16:35.407Z,100704.55
2019-02-18T17:19:14.144Z,100705.05
2019-02-18T17:21:40.271Z,100708.91
2019-02-18T17:24:06.497Z,100696.48
2019-02-18T17:26:33.004Z,100706.06
2019-02-18T17:29:00.231Z,100701.37
2019-02-18T17:31:26.565Z,100706.45
2019-02-18T17:33:53.688Z,100698.63
2019-02-18T17:36:19.908Z,100696.18
2019-02-18T17:38:46.021Z,100698.18
2019-02-18T17:41:18.311Z,100716.02
2019-02-18T17:43:45.101Z,100719.56
2019-02-18T17:46:11.859Z,100714.39
2019-02-18T17:48:38.071Z,100709.40
2019-02-18T17:51:06.493Z,100719.13
2019-02-18T17:53:32.872Z,100717.77
2019-02-18T17:55:59.010Z,100717.15
2019-02-18T17:58:25.233Z,100714.37
2019-02-18T18:00:53.446Z,100716.18
2019-02-18T18:03:20.157Z,100711.76
2019-02-18T18:05:46.378Z,100708.63
2019-02-18T18:08:12.581Z,100707.75
2019-02-18T18:10:45.187Z,100695.62
2019-02-18T18:13:11.315Z,100696.75
2019-02-18T18:15:47.089Z,100698.41
2019-02-18T18:18:13.269Z,100693.23
2019-02-18T18:20:45.667Z,100705.03
2019-02-18T18:23:15.075Z,100708.95
2019-02-18T18:25:48.329Z,100705.77
2019-02-18T18:28:15.324Z,100705.77
2019-02-18T18:30:44.231Z,100708.45
2019-02-18T18:33:10.528Z,100709.80
2019-02-18T18:35:36.798Z,100700.95
2019-02-18T18:38:06.220Z,100702.44
2019-02-18T18:40:39.001Z,100706.45
2019-02-18T18:43:11.680Z,100708.82
2019-02-18T18:45:37.847Z,100699.83
2019-02-18T18:48:15.361Z,100700.33
2019-02-18T18:50:41.588Z,100711.70
2019-02-18T18:53:09.698Z,100702.67
2019-02-18T18:55:36.039Z,100714.58
2019-02-18T18:58:06.380Z,100702.38
2019-02-18T19:00:32.599Z,100701.55
2019-02-18T19:02:59.197Z,100709.13
2019-02-18T19:05:25.401Z,100705.91
2019-02-18T19:07:51.804Z,100710.74
2019-02-18T19:10:18.235Z,100704.55
2019-02-18T19:12:44.565Z,100703.41
2019-02-18T19:15:12.580Z,100701.58
2019-02-18T19:17:38.929Z,100698.95
2019-02-18T19:20:08.213Z,100698.67
2019-02-18T19:22:34.542Z,100702.30
2019-02-18T19:25:07.775Z,100699.63
2019-02-18T19:27:34.015Z,100707.27
2019-02-18T19:30:00.229Z,100708.82
2019-02-18T19:32:31.972Z,100712.23
2019-02-18T19:35:09.964Z,100721.92
2019-02-18T19:37:36.123Z,100723.50
2019-02-18T19:40:09.152Z,100727.29
2019-02-18T19:42:35.767Z,100725.55
2019-02-18T19:45:13.131Z,100725.92
2019-02-18T19:47:44.504Z,100726.30
2019-02-18T19:50:10.819Z,100734.77
2019-02-18T19:52:37.128Z,100731.08
2019-02-18T19:55:06.330Z,100735.30
2019-02-18T19:57:32.461Z,100740.13
2019-02-18T19:59:58.685Z,100744.67
2019-02-18T20:02:24.933Z,100742.77
2019-02-18T20:04:52.160Z,100738.80
2019-02-18T20:07:18.290Z,100735.00
2019-02-18T20:09:44.504Z,100735.00
2019-02-18T20:12:13.618Z,100738.11
2019-02-18T20:14:39.920Z,100739.86
2019-02-18T20:17:06.286Z,100731.73
2019-02-18T20:19:32.597Z,100736.02
2019-02-18T20:22:05.306Z,100726.93
2019-02-18T20:24:38.654Z,100736.73
2019-02-18T20:27:06.759Z,100737.56
2019-02-18T20:29:32.970Z,100732.11
2019-02-18T20:31:59.320Z,100736.35
2019-02-18T20:34:25.448Z,100732.02
2019-02-18T20:36:52.241Z,100725.69
2019-02-18T20:39:22.152Z,100722.13
2019-02-18T20:41:48.503Z,100731.57
2019-02-18T20:44:18.071Z,100729.97
2019-02-18T20:46:44.216Z,100735.41
2019-02-18T20:49:10.554Z,100735.95
2019-02-18T20:54:09.024Z,100735.78
2019-02-18T20:56:35.161Z,100729.41
2019-02-18T20:59:06.402Z,100736.88
2019-02-18T21:01:39.684Z,100736.86
2019-02-18T21:04:12.325Z,100734.25
2019-02-18T21:06:41.412Z,100737.81
2019-02-18T21:09:08.027Z,100735.42
2019-02-18T21:11:34.675Z,100730.98
2019-02-18T21:14:15.927Z,100738.87
2019-02-18T21:16:40.688Z,100735.26
2019-02-18T21:19:09.641Z,100736.66
2019-02-18T21:21:36.171Z,100733.52
2019-02-18T21:24:07.034Z,100732.98
2019-02-18T21:26:33.235Z,100734.94
2019-02-18T21:28:59.451Z,100732.14
2019-02-18T21:31:25.573Z,100732.56
2019-02-18T21:33:51.834Z,100730.39
2019-02-18T21:36:18.065Z,100736.61
2019-02-18T21:38:44.183Z,100734.79
2019-02-18T21:41:10.486Z,100735.75
2019-02-18T21:43:36.781Z,100745.42
2019-02-18T21:46:05.035Z,100743.66
2019-02-18T21:48:31.176Z,100746.13
2019-02-18T21:50:57.421Z,100747.28
2019-02-18T21:53:23.492Z,100746.17
2019-02-18T21:55:49.761Z,100742.72
2019-02-18T21:58:21.773Z,100739.86
2019-02-18T22:00:49.093Z,100746.81
2019-02-18T22:03:15.453Z,100745.52
2019-02-18T22:05:41.587Z,100743.22
2019-02-18T22:08:11.542Z,100744.84
2019-02-18T22:10:37.638Z,100751.25
2019-02-18T22:13:08.656Z,100759.27
2019-02-18T22:15:35.032Z,100760.22
2019-02-18T22:18:09.192Z,100757.36
2019-02-18T22:20:35.523Z,100754.07
2019-02-18T22:23:06.175Z,100763.48
2019-02-18T22:25:32.366Z,100752.87
2019-02-18T22:27:58.488Z,100760.47
2019-02-18T22:30:24.676Z,100757.78
2019-02-18T22:32:55.298Z,100752.87
2019-02-18T22:35:21.385Z,100747.39
2019-02-18T22:37:47.486Z,100753.66
2019-02-18T22:40:13.680Z,100741.68
2019-02-18T22:42:39.918Z,100742.33
2019-02-18T22:45:08.202Z,100747.39
2019-02-18T22:47:34.543Z,100745.60
2019-02-18T22:52:40.120Z,100746.22
2019-02-18T22:55:07.288Z,100747.42
2019-02-18T22:57:33.502Z,100735.91
2019-02-18T22:59:59.692Z,100741.45
2019-02-18T23:02:26.147Z,100746.45
2019-02-18T23:04:52.429Z,100739.47
2019-02-18T23:07:18.518Z,100742.39
2019-02-18T23:09:44.830Z,100747.27
2019-02-18T23:12:11.068Z,100746.13
2019-02-18T23:14:37.291Z,100750.74
2019-02-18T23:17:10.979Z,100746.14
2019-02-18T23:19:37.092Z,100748.98
2019-02-18T23:22:04.919Z,100750.20
2019-02-18T23:24:31.170Z,100748.27
2019-02-18T23:26:57.485Z,100741.77
2019-02-18T23:29:23.994Z,100739.38
2019-02-18T23:31:50.081Z,100744.14
2019-02-18T23:34:16.197Z,100743.75
2019-02-18T23:36:42.564Z,100739.73
2019-02-18T23:39:08.772Z,100744.92
2019-02-18T23:41:35.006Z,100746.02
2019-02-18T23:44:04.125Z,100750.38
2019-02-18T23:46:30.464Z,100744.37
2019-02-18T23:48:56.705Z,100748.48
2019-02-18T23:51:22.849Z,100746.70
2019-02-18T23:53:48.941Z,100745.95
2019-02-18T23:56:15.023Z,100752.61
2019-02-18T23:58:41.252Z,100753.91
